Time;durP1;ratioP1;P1;durP2;ratioP2;P2;SDS_P1;SDS_P2;PMS_P1;PMS_P2;Temp;Humidity;BMP_temperature;BMP_pressure;BME280_temperature;BME280_humidity;BME280_pressure;Samples;Min_cycle;Max_cycle;Signal;HPM_P1;HPM_P2
2022/07/03 00:00:57;;;;;;;12.00;4.65;;;;;;;;;;4803352;29;20051;-70
2022/07/03 00:03:27;;;;;;;10.10;4.22;;;;;;;;;;4767067;30;20066;-70
2022/07/03 00:05:57;;;;;;;9.40;4.30;;;;;;;;;;4776602;30;20440;-70
2022/07/03 00:08:27;;;;;;;10.07;4.75;;;;;;;;;;4754779;30;20055;-70
2022/07/03 00:10:58;;;;;;;8.60;3.67;;;;;;;;;;4785290;30;20447;-70
2022/07/03 00:13:29;;;;;;;17.80;4.50;;;;;;;;;;4785305;30;20066;-70
2022/07/03 00:15:59;;;;;;;8.38;4.15;;;;;;;;;;4785440;30;20063;-70
2022/07/03 00:18:29;;;;;;;10.07;4.03;;;;;;;;;;4766885;30;20070;-70
2022/07/03 00:21:05;;;;;;;7.68;3.88;;;;;;;;;;4766940;30;20086;-70
2022/07/03 00:23:52;;;;;;;9.90;4.75;;;;;;;;;;4767264;30;20382;-70
2022/07/03 00:26:24;;;;;;;10.27;4.40;;;;;;;;;;4737619;30;20071;-70
2022/07/03 00:28:59;;;;;;;8.68;3.97;;;;;;;;;;4766873;30;20067;-70
2022/07/03 00:31:32;;;;;;;9.60;4.10;;;;;;;;;;4767175;30;20075;-70
2022/07/03 00:34:03;;;;;;;14.48;4.72;;;;;;;;;;4781061;29;20752;-70
2022/07/03 00:36:35;;;;;;;9.50;4.60;;;;;;;;;;4821347;29;20058;-70
2022/07/03 00:39:06;;;;;;;10.18;4.40;;;;;;;;;;4822106;29;20060;-69
2022/07/03 00:41:36;;;;;;;13.10;4.93;;;;;;;;;;4857671;29;20175;-69
2022/07/03 00:44:07;;;;;;;10.88;4.75;;;;;;;;;;4857253;29;20062;-69
2022/07/03 00:46:39;;;;;;;8.98;4.35;;;;;;;;;;4857518;29;20190;-69
2022/07/03 00:49:13;;;;;;;8.98;5.20;;;;;;;;;;4857491;29;20057;-70
2022/07/03 00:51:51;;;;;;;13.50;5.80;;;;;;;;;;4828673;29;20406;-70
2022/07/03 00:54:24;;;;;;;9.77;5.30;;;;;;;;;;4857561;29;20053;-70
2022/07/03 00:56:55;;;;;;;;;;;;;;;;;;4857920;29;20068;-70
2022/07/03 00:59:25;;;;;;;8.68;4.57;;;;;;;;;;4829974;29;19923;-70
2022/07/03 01:02:05;;;;;;;13.80;5.05;;;;;;;;;;4875887;29;20053;-70
2022/07/03 01:04:38;;;;;;;12.32;5.40;;;;;;;;;;4875688;29;20053;-70
2022/07/03 01:07:26;;;;;;;13.07;5.47;;;;;;;;;;4877534;29;20402;-70
2022/07/03 01:09:56;;;;;;;9.90;5.20;;;;;;;;;;4845180;29;20061;-70
2022/07/03 01:13:01;;;;;;;11.10;6.05;;;;;;;;;;4878055;29;20061;-70
2022/07/03 01:15:47;;;;;;;10.68;5.18;;;;;;;;;;4838485;29;20145;-70
2022/07/03 01:18:45;;;;;;;13.63;5.95;;;;;;;;;;4823183;29;20058;-70
2022/07/03 01:21:50;;;;;;;12.73;5.68;;;;;;;;;;4820430;29;20054;-70
2022/07/03 01:24:39;;;;;;;15.55;5.88;;;;;;;;;;4820398;29;20046;-70
2022/07/03 01:27:54;;;;;;;12.98;5.80;;;;;;;;;;4802037;29;20062;-70
2022/07/03 01:30:29;;;;;;;14.50;6.25;;;;;;;;;;4748536;30;20073;-70
2022/07/03 01:33:10;;;;;;;13.00;5.97;;;;;;;;;;4732839;30;20052;-69
2022/07/03 01:35:48;;;;;;;12.55;6.03;;;;;;;;;;4720927;30;20533;-70
2022/07/03 01:38:21;;;;;;;11.50;5.53;;;;;;;;;;4748531;30;20060;-70
2022/07/03 01:40:55;;;;;;;10.32;5.60;;;;;;;;;;4748373;30;20079;-70
2022/07/03 01:43:30;;;;;;;12.43;5.75;;;;;;;;;;4730508;30;20052;-70
2022/07/03 01:46:03;;;;;;;14.60;6.10;;;;;;;;;;4730443;30;20057;-69
2022/07/03 01:48:33;;;;;;;;;;;;;;;;;;4731264;30;20065;-69
2022/07/03 01:51:04;;;;;;;11.60;5.55;;;;;;;;;;4715939;30;19926;-70
2022/07/03 01:53:36;;;;;;;13.65;5.95;;;;;;;;;;4701659;30;20056;-69
2022/07/03 01:56:07;;;;;;;13.20;5.55;;;;;;;;;;4730257;30;20065;-70
2022/07/03 01:58:38;;;;;;;13.35;5.40;;;;;;;;;;4760427;30;20071;-69
2022/07/03 02:01:38;;;;;;;17.02;6.07;;;;;;;;;;4783632;30;20055;-69
2022/07/03 02:04:49;;;;;;;13.95;6.05;;;;;;;;;;4783942;30;20067;-70
2022/07/03 02:07:29;;;;;;;14.77;5.97;;;;;;;;;;4798352;29;20530;-69
2022/07/03 02:10:08;;;;;;;14.43;6.57;;;;;;;;;;4819917;29;20058;-69
2022/07/03 02:13:02;;;;;;;11.73;6.18;;;;;;;;;;4819811;29;20051;-70
2022/07/03 02:15:34;;;;;;;16.10;6.28;;;;;;;;;;4819940;29;20066;-69
2022/07/03 02:18:28;;;;;;;15.13;6.15;;;;;;;;;;4804876;29;20058;-69
2022/07/03 02:21:15;;;;;;;16.35;7.05;;;;;;;;;;4836539;29;20057;-69
2022/07/03 02:24:18;;;;;;;15.73;6.43;;;;;;;;;;4801685;29;20401;-70
2022/07/03 02:27:03;;;;;;;13.27;6.13;;;;;;;;;;4801368;29;20067;-69
2022/07/03 02:29:55;;;;;;;13.10;6.05;;;;;;;;;;4801665;29;20491;-70
2022/07/03 02:32:30;;;;;;;12.90;7.25;;;;;;;;;;4801703;29;20055;-70
2022/07/03 02:35:06;;;;;;;11.57;5.68;;;;;;;;;;4783346;29;20063;-69
2022/07/03 02:37:50;;;;;;;17.95;8.65;;;;;;;;;;4783616;30;20067;-69
2022/07/03 02:40:28;;;;;;;11.50;5.57;;;;;;;;;;4783245;30;20067;-70
2022/07/03 02:42:59;;;;;;;15.95;6.35;;;;;;;;;;4783220;29;20061;-70
2022/07/03 02:49:07;;;;;;;16.80;6.18;;;;;;;;;;4822617;29;20171;-70
2022/07/03 02:51:41;;;;;;;14.73;5.22;;;;;;;;;;4809048;29;20062;-70
2022/07/03 02:54:15;;;;;;;15.15;6.38;;;;;;;;;;4822565;29;20058;-70
2022/07/03 02:57:08;;;;;;;13.82;6.28;;;;;;;;;;4807772;29;20408;-70
2022/07/03 03:00:01;;;;;;;14.25;5.88;;;;;;;;;;4822602;29;20133;-69
2022/07/03 03:02:58;;;;;;;12.38;6.00;;;;;;;;;;4840332;29;20054;-69
2022/07/03 03:05:55;;;;;;;10.85;5.68;;;;;;;;;;4840489;29;20054;-69
2022/07/03 03:08:48;;;;;;;16.55;5.88;;;;;;;;;;4825454;29;20049;-69
2022/07/03 03:11:39;;;;;;;11.77;5.93;;;;;;;;;;4840796;29;20064;-69
2022/07/03 03:14:15;;;;;;;12.93;5.93;;;;;;;;;;4804502;29;20058;-69
2022/07/03 03:16:52;;;;;;;12.75;5.80;;;;;;;;;;4759509;29;20050;-69
2022/07/03 03:19:24;;;;;;;12.50;5.95;;;;;;;;;;4804270;29;20067;-69
2022/07/03 03:22:30;;;;;;;14.70;6.10;;;;;;;;;;4804133;29;20055;-69
2022/07/03 03:25:04;;;;;;;12.38;5.88;;;;;;;;;;4818602;29;20062;-70
2022/07/03 03:27:35;;;;;;;15.50;5.97;;;;;;;;;;4828428;29;20054;-69
2022/07/03 03:30:06;;;;;;;12.93;5.32;;;;;;;;;;4859380;29;20057;-69
2022/07/03 03:32:39;;;;;;;11.38;5.93;;;;;;;;;;4828468;29;20061;-69
2022/07/03 03:35:10;;;;;;;12.23;5.95;;;;;;;;;;4813076;29;20057;-69
2022/07/03 03:37:41;;;;;;;12.57;6.47;;;;;;;;;;4858776;29;20062;-69
2022/07/03 03:40:13;;;;;;;12.25;5.82;;;;;;;;;;4843393;29;20053;-69
2022/07/03 03:42:43;;;;;;;10.05;5.75;;;;;;;;;;4865508;29;20127;-69
2022/07/03 03:45:13;;;;;;;13.30;5.78;;;;;;;;;;4879717;29;20045;-70
2022/07/03 03:47:43;;;;;;;14.15;6.43;;;;;;;;;;4879755;29;20052;-69
2022/07/03 03:50:14;;;;;;;13.10;6.43;;;;;;;;;;4879447;29;20041;-69
2022/07/03 03:52:45;;;;;;;14.88;6.07;;;;;;;;;;4879267;29;20041;-69
2022/07/03 03:55:16;;;;;;;11.32;6.18;;;;;;;;;;4878950;29;20053;-69
2022/07/03 03:57:46;;;;;;;16.42;6.13;;;;;;;;;;4877158;29;20065;-69
2022/07/03 04:00:17;;;;;;;12.35;5.80;;;;;;;;;;4827660;29;20049;-70
2022/07/03 04:02:47;;;;;;;14.18;6.22;;;;;;;;;;4842998;29;20516;-69
2022/07/03 04:05:17;;;;;;;10.90;5.78;;;;;;;;;;4858301;29;20396;-68
2022/07/03 04:07:48;;;;;;;12.00;5.78;;;;;;;;;;4857953;29;20065;-69
2022/07/03 04:10:18;;;;;;;12.18;5.85;;;;;;;;;;4858315;29;20166;-69
2022/07/03 04:12:48;;;;;;;12.48;6.07;;;;;;;;;;4858161;29;20489;-68
2022/07/03 04:15:18;;;;;;;11.10;5.50;;;;;;;;;;4858172;29;20049;-68
2022/07/03 04:17:52;;;;;;;11.43;5.78;;;;;;;;;;4857898;29;20064;-69
2022/07/03 04:20:23;;;;;;;11.23;5.65;;;;;;;;;;4811838;29;20533;-68
2022/07/03 04:22:53;;;;;;;10.25;5.20;;;;;;;;;;4842686;29;20395;-68
2022/07/03 04:25:23;;;;;;;11.05;5.95;;;;;;;;;;4857673;29;20061;-69
2022/07/03 04:27:54;;;;;;;11.07;5.40;;;;;;;;;;4827264;29;20057;-68
2022/07/03 04:30:44;;;;;;;13.40;5.63;;;;;;;;;;4857775;29;20064;-69
2022/07/03 04:33:14;;;;;;;13.63;5.90;;;;;;;;;;4857901;29;20438;-68
2022/07/03 04:35:45;;;;;;;11.25;5.53;;;;;;;;;;4857818;29;20045;-68
2022/07/03 04:38:15;;;;;;;13.35;5.63;;;;;;;;;;4869613;29;20057;-69
2022/07/03 04:40:46;;;;;;;10.52;5.07;;;;;;;;;;4876607;29;20057;-69
2022/07/03 04:43:18;;;;;;;14.98;5.47;;;;;;;;;;4876147;29;20162;-69
2022/07/03 04:45:48;;;;;;;11.48;5.78;;;;;;;;;;4838970;29;20054;-69
2022/07/03 04:48:18;;;;;;;14.23;5.47;;;;;;;;;;4839094;29;20066;-69
2022/07/03 04:50:49;;;;;;;13.20;5.60;;;;;;;;;;4802290;29;20059;-68
2022/07/03 04:53:20;;;;;;;14.50;5.60;;;;;;;;;;4802522;29;20070;-68
2022/07/03 04:55:51;;;;;;;13.73;5.28;;;;;;;;;;4802426;29;20066;-70
2022/07/03 04:58:21;;;;;;;10.73;5.18;;;;;;;;;;4802446;29;20496;-70
2022/07/03 05:00:52;;;;;;;11.93;5.53;;;;;;;;;;4802644;29;20061;-70
2022/07/03 05:03:22;;;;;;;9.40;4.90;;;;;;;;;;4813692;29;20058;-68
2022/07/03 05:05:52;;;;;;;9.73;5.40;;;;;;;;;;4820550;29;20066;-69
2022/07/03 05:08:22;;;;;;;8.68;4.57;;;;;;;;;;4774826;29;20475;-69
2022/07/03 05:10:52;;;;;;;12.43;5.20;;;;;;;;;;4775577;29;20059;-69
2022/07/03 05:13:22;;;;;;;12.93;4.68;;;;;;;;;;4820581;29;20073;-69
2022/07/03 05:15:53;;;;;;;14.52;5.32;;;;;;;;;;4820435;29;20057;-69
2022/07/03 05:18:23;;;;;;;11.13;5.10;;;;;;;;;;4820633;29;20066;-69
2022/07/03 05:20:54;;;;;;;8.25;4.65;;;;;;;;;;4820409;29;20047;-68
2022/07/03 05:23:24;;;;;;;10.02;5.20;;;;;;;;;;4829174;29;20058;-69
2022/07/03 05:25:55;;;;;;;11.07;4.78;;;;;;;;;;4838556;29;20050;-68
2022/07/03 05:28:26;;;;;;;7.40;4.43;;;;;;;;;;4847217;29;20126;-69
2022/07/03 05:30:56;;;;;;;10.98;4.15;;;;;;;;;;4857146;29;20060;-69
2022/07/03 05:33:26;;;;;;;9.10;4.07;;;;;;;;;;4826388;29;20415;-69
2022/07/03 05:35:57;;;;;;;8.25;4.30;;;;;;;;;;4856954;29;20072;-69
2022/07/03 05:41:28;;;;;;;7.82;3.88;;;;;;;;;;4771993;29;20059;-69
2022/07/03 05:43:57;;;;;;;5.15;2.78;;;;;;;;;;4814557;29;20069;-69
2022/07/03 05:46:28;;;;;;;6.30;3.22;;;;;;;;;;4820243;29;20070;-69
2022/07/03 05:48:58;;;;;;;7.03;2.58;;;;;;;;;;4820268;29;20051;-69
2022/07/03 05:51:29;;;;;;;7.45;2.55;;;;;;;;;;4819849;29;20103;-69
2022/07/03 05:53:59;;;;;;;5.40;2.10;;;;;;;;;;4790112;29;20058;-70
2022/07/03 05:56:29;;;;;;;6.78;2.05;;;;;;;;;;4820218;29;20578;-69
2022/07/03 05:59:00;;;;;;;4.80;1.92;;;;;;;;;;4775155;29;20058;-69
2022/07/03 06:01:30;;;;;;;6.03;2.50;;;;;;;;;;4820328;29;20066;-69
2022/07/03 06:04:01;;;;;;;4.72;2.30;;;;;;;;;;4774915;29;20065;-69
2022/07/03 06:06:31;;;;;;;5.10;2.40;;;;;;;;;;4801389;29;20066;-70
2022/07/03 06:09:01;;;;;;;4.90;2.40;;;;;;;;;;4757209;29;20063;-68
2022/07/03 06:11:32;;;;;;;6.70;2.03;;;;;;;;;;4801812;29;20535;-69
2022/07/03 06:14:02;;;;;;;5.32;2.22;;;;;;;;;;4771772;29;20527;-69
2022/07/03 06:16:33;;;;;;;4.78;1.73;;;;;;;;;;4801752;29;20471;-69
2022/07/03 06:19:03;;;;;;;6.57;2.28;;;;;;;;;;4795201;29;20422;-69
2022/07/03 06:21:34;;;;;;;6.18;2.17;;;;;;;;;;4829350;29;20073;-69
2022/07/03 06:24:06;;;;;;;3.33;1.75;;;;;;;;;;4829317;29;20058;-69
2022/07/03 06:26:36;;;;;;;5.05;1.92;;;;;;;;;;4841604;29;20109;-69
2022/07/03 06:29:06;;;;;;;8.57;2.15;;;;;;;;;;4841711;29;20054;-69
2022/07/03 06:31:36;;;;;;;4.38;2.30;;;;;;;;;;4841595;29;20057;-69
2022/07/03 06:34:06;;;;;;;8.95;2.30;;;;;;;;;;4795858;29;20062;-70
2022/07/03 06:36:37;;;;;;;5.70;2.35;;;;;;;;;;4841395;29;20050;-69
2022/07/03 06:39:07;;;;;;;7.53;2.55;;;;;;;;;;4811019;29;20072;-69
2022/07/03 06:41:37;;;;;;;5.40;2.15;;;;;;;;;;4841389;29;20057;-69
2022/07/03 06:44:08;;;;;;;8.10;2.13;;;;;;;;;;4841145;29;20054;-70
2022/07/03 06:46:38;;;;;;;4.78;2.63;;;;;;;;;;4807612;29;20067;-69
2022/07/03 06:49:08;;;;;;;6.25;2.25;;;;;;;;;;4822617;29;20058;-70
2022/07/03 06:51:39;;;;;;;9.18;2.67;;;;;;;;;;4822708;29;20058;-70
2022/07/03 06:54:09;;;;;;;5.78;2.30;;;;;;;;;;4822636;29;20051;-70
2022/07/03 06:56:39;;;;;;;7.47;3.03;;;;;;;;;;4822732;29;20156;-69
2022/07/03 06:59:10;;;;;;;6.47;2.88;;;;;;;;;;4822539;29;20492;-69
2022/07/03 07:01:40;;;;;;;5.95;2.80;;;;;;;;;;4807493;29;20058;-70
2022/07/03 07:04:11;;;;;;;8.73;2.80;;;;;;;;;;4840554;29;20062;-70
2022/07/03 07:06:42;;;;;;;8.50;2.42;;;;;;;;;;4844027;29;20050;-69
2022/07/03 07:09:13;;;;;;;4.72;2.55;;;;;;;;;;4840474;29;20065;-69
2022/07/03 07:11:43;;;;;;;5.90;2.38;;;;;;;;;;4840822;29;20102;-70
2022/07/03 07:14:13;;;;;;;5.38;2.20;;;;;;;;;;4840759;29;20058;-69
2022/07/03 07:16:43;;;;;;;5.20;2.47;;;;;;;;;;4840773;29;20479;-69
2022/07/03 07:19:14;;;;;;;7.10;2.50;;;;;;;;;;4840452;29;20064;-69
2022/07/03 07:21:45;;;;;;;9.10;2.80;;;;;;;;;;4840700;29;20081;-69
2022/07/03 07:24:16;;;;;;;6.10;2.38;;;;;;;;;;4858721;29;20061;-69
2022/07/03 07:26:45;;;;;;;6.15;2.47;;;;;;;;;;4877443;29;20065;-69
2022/07/03 07:29:16;;;;;;;7.38;2.60;;;;;;;;;;4862196;29;20053;-69
2022/07/03 07:31:46;;;;;;;5.90;2.47;;;;;;;;;;4861515;29;20049;-69
2022/07/03 07:34:17;;;;;;;5.32;2.20;;;;;;;;;;4877427;29;20526;-69
2022/07/03 07:36:47;;;;;;;10.48;2.53;;;;;;;;;;4821862;29;20554;-69
2022/07/03 07:39:17;;;;;;;5.75;2.78;;;;;;;;;;4821942;29;20055;-69
2022/07/03 07:41:47;;;;;;;4.78;2.55;;;;;;;;;;4821955;29;20062;-69
2022/07/03 07:44:18;;;;;;;5.05;2.17;;;;;;;;;;4807293;29;20054;-69
2022/07/03 07:46:49;;;;;;;5.82;2.47;;;;;;;;;;4830904;29;20076;-69
2022/07/03 07:49:19;;;;;;;7.18;2.45;;;;;;;;;;4796413;29;20062;-70
2022/07/03 07:51:49;;;;;;;7.75;2.63;;;;;;;;;;4840256;29;20058;-70
2022/07/03 07:54:19;;;;;;;7.43;2.90;;;;;;;;;;4809677;29;20058;-70
2022/07/03 07:56:50;;;;;;;5.88;2.30;;;;;;;;;;4840036;29;20053;-69
2022/07/03 07:59:21;;;;;;;7.28;2.72;;;;;;;;;;4840145;29;20093;-69
2022/07/03 08:07:28;;;;;;;7.43;2.53;;;;;;;;;;4758763;29;20511;-69
2022/07/03 08:09:58;;;;;;;6.70;2.40;;;;;;;;;;4803341;29;20094;-69
2022/07/03 08:12:28;;;;;;;6.70;2.72;;;;;;;;;;4803655;29;20054;-69
2022/07/03 08:14:58;;;;;;;6.72;2.40;;;;;;;;;;4843760;29;20069;-69
2022/07/03 08:17:29;;;;;;;5.97;2.72;;;;;;;;;;4858225;29;20054;-70
2022/07/03 08:20:00;;;;;;;7.63;2.42;;;;;;;;;;4828338;29;20061;-69
2022/07/03 08:22:29;;;;;;;5.93;2.55;;;;;;;;;;4858076;29;20058;-69
2022/07/03 08:24:59;;;;;;;8.05;2.60;;;;;;;;;;4827250;29;20638;-69
2022/07/03 08:27:29;;;;;;;8.60;2.65;;;;;;;;;;4842939;29;20068;-69
2022/07/03 08:30:00;;;;;;;5.55;2.53;;;;;;;;;;4812158;29;20066;-70
2022/07/03 08:32:30;;;;;;;8.15;2.63;;;;;;;;;;4839143;29;20511;-70
2022/07/03 08:35:01;;;;;;;4.90;2.90;;;;;;;;;;4839265;29;20073;-69
2022/07/03 08:37:31;;;;;;;5.28;2.53;;;;;;;;;;4773515;29;20063;-70
2022/07/03 08:40:02;;;;;;;4.93;2.33;;;;;;;;;;4815792;29;20050;-69
2022/07/03 08:42:35;;;;;;;8.25;3.20;;;;;;;;;;4820571;29;20602;-69
2022/07/03 08:45:08;;;;;;;6.93;2.50;;;;;;;;;;4820571;29;20046;-70
2022/07/03 08:47:40;;;;;;;6.82;2.95;;;;;;;;;;4821013;29;20066;-70
2022/07/03 08:50:15;;;;;;;7.03;2.60;;;;;;;;;;4820778;29;20058;-69
2022/07/03 08:52:47;;;;;;;8.23;2.65;;;;;;;;;;4821016;29;20503;-69
2022/07/03 08:55:18;;;;;;;6.82;3.10;;;;;;;;;;4820893;29;20070;-69
2022/07/03 08:57:49;;;;;;;5.85;2.72;;;;;;;;;;4820902;29;20065;-69
2022/07/03 09:00:20;;;;;;;4.78;2.25;;;;;;;;;;4790915;29;20057;-69
2022/07/03 09:02:51;;;;;;;7.57;2.53;;;;;;;;;;4790509;29;20062;-69
2022/07/03 09:05:21;;;;;;;8.45;2.92;;;;;;;;;;4820647;29;20054;-69
2022/07/03 09:07:53;;;;;;;6.35;2.63;;;;;;;;;;4820462;29;20102;-69
2022/07/03 09:10:23;;;;;;;;;;;;;;;;;;4832369;29;20422;-69
2022/07/03 09:12:54;;;;;;;7.47;2.72;;;;;;;;;;4838852;29;19931;-69
2022/07/03 09:15:24;;;;;;;4.90;2.45;;;;;;;;;;4861786;29;20105;-69
2022/07/03 09:18:07;;;;;;;6.60;2.92;;;;;;;;;;4875668;29;20060;-69
2022/07/03 09:20:41;;;;;;;5.63;2.60;;;;;;;;;;4875511;29;20552;-69
2022/07/03 09:23:17;;;;;;;5.30;2.42;;;;;;;;;;4860905;29;20434;-69
2022/07/03 09:25:54;;;;;;;5.45;2.50;;;;;;;;;;4837839;29;20061;-69
2022/07/03 09:28:45;;;;;;;4.80;2.85;;;;;;;;;;4838582;29;20065;-69
2022/07/03 09:31:17;;;;;;;6.72;2.70;;;;;;;;;;4823524;29;20062;-69
2022/07/03 09:34:01;;;;;;;7.30;3.05;;;;;;;;;;4852962;29;20058;-69
2022/07/03 09:36:47;;;;;;;6.78;2.78;;;;;;;;;;4808018;29;20065;-69
2022/07/03 09:39:23;;;;;;;8.27;2.75;;;;;;;;;;4838286;29;20606;-69
2022/07/03 09:42:03;;;;;;;5.30;2.90;;;;;;;;;;4823050;29;20396;-69
2022/07/03 09:44:34;;;;;;;10.50;2.67;;;;;;;;;;4837867;29;20052;-70
2022/07/03 09:47:18;;;;;;;5.45;2.60;;;;;;;;;;4838285;29;20066;-70
2022/07/03 09:50:04;;;;;;;6.13;2.60;;;;;;;;;;4838058;29;20418;-69
2022/07/03 09:52:37;;;;;;;7.75;3.10;;;;;;;;;;4838314;29;20138;-70
2022/07/03 09:55:09;;;;;;;6.93;3.00;;;;;;;;;;4841566;29;20087;-70
2022/07/03 09:57:58;;;;;;;9.70;2.85;;;;;;;;;;4857199;29;20053;-69
2022/07/03 10:00:31;;;;;;;6.20;2.92;;;;;;;;;;4841988;29;20529;-70
2022/07/03 10:03:10;;;;;;;6.45;3.03;;;;;;;;;;4826504;29;20053;-69
2022/07/03 10:05:42;;;;;;;8.88;3.20;;;;;;;;;;4841756;29;20541;-70
2022/07/03 10:08:18;;;;;;;5.25;2.78;;;;;;;;;;4842047;29;20687;-69
2022/07/03 10:10:49;;;;;;;7.43;2.97;;;;;;;;;;4841826;29;20057;-69
2022/07/03 10:13:19;;;;;;;8.82;2.78;;;;;;;;;;4841842;29;20053;-69
2022/07/03 10:15:50;;;;;;;9.90;3.08;;;;;;;;;;4841756;29;20072;-70
2022/07/03 10:18:26;;;;;;;12.13;3.22;;;;;;;;;;4841947;29;20050;-70
2022/07/03 10:20:59;;;;;;;5.22;2.70;;;;;;;;;;4826674;29;20763;-71
2022/07/03 10:23:32;;;;;;;6.88;3.47;;;;;;;;;;4829433;29;20064;-70
2022/07/03 10:26:03;;;;;;;8.90;3.15;;;;;;;;;;4859925;29;20053;-71
2022/07/03 10:28:33;;;;;;;5.88;3.10;;;;;;;;;;4862179;29;20065;-71
2022/07/03 10:31:05;;;;;;;7.90;3.22;;;;;;;;;;4859442;29;20081;-70
2022/07/03 10:33:37;;;;;;;6.18;3.00;;;;;;;;;;4860082;29;20049;-70
2022/07/03 10:36:09;;;;;;;7.72;3.20;;;;;;;;;;4859817;29;20072;-70
2022/07/03 10:38:42;;;;;;;7.80;2.90;;;;;;;;;;4844363;29;20065;-70
2022/07/03 10:46:58;;;;;;;8.10;3.33;;;;;;;;;;4859705;29;20072;-70
2022/07/03 10:49:35;;;;;;;8.15;4.15;;;;;;;;;;4859604;29;20069;-70
2022/07/03 10:52:07;;;;;;;8.93;3.80;;;;;;;;;;4859481;29;20062;-71
2022/07/03 10:54:51;;;;;;;6.65;3.60;;;;;;;;;;4874478;29;20065;-70
2022/07/03 10:57:22;;;;;;;10.57;3.30;;;;;;;;;;4874600;29;20502;-71
2022/07/03 10:59:57;;;;;;;6.80;3.38;;;;;;;;;;4859442;29;20080;-70
2022/07/03 11:02:42;;;;;;;5.43;2.92;;;;;;;;;;4859710;29;20510;-70
2022/07/03 11:05:20;;;;;;;6.28;3.17;;;;;;;;;;4844831;29;20470;-70
2022/07/03 11:07:51;;;;;;;6.45;3.38;;;;;;;;;;4857450;29;20399;-70
2022/07/03 11:10:21;;;;;;;9.98;3.30;;;;;;;;;;4879990;29;20053;-70
2022/07/03 11:13:04;;;;;;;7.63;3.33;;;;;;;;;;4880226;29;20508;-70
2022/07/03 11:15:44;;;;;;;7.38;3.00;;;;;;;;;;4858879;29;20059;-70
2022/07/03 11:18:19;;;;;;;11.30;3.30;;;;;;;;;;4859064;29;20069;-70
2022/07/03 11:20:52;;;;;;;7.47;3.22;;;;;;;;;;4859189;29;20539;-70
2022/07/03 11:23:31;;;;;;;7.32;3.30;;;;;;;;;;4858887;29;20506;-70
2022/07/03 11:26:19;;;;;;;7.75;3.63;;;;;;;;;;4858890;29;20058;-70
2022/07/03 11:28:51;;;;;;;7.03;2.90;;;;;;;;;;4858880;29;20171;-70
2022/07/03 11:31:24;;;;;;;7.03;3.28;;;;;;;;;;4858958;29;20056;-71
2022/07/03 11:33:55;;;;;;;5.88;3.30;;;;;;;;;;4829115;29;20059;-71
2022/07/03 11:36:33;;;;;;;6.38;3.42;;;;;;;;;;4858762;29;20066;-71
2022/07/03 11:39:08;;;;;;;7.82;3.22;;;;;;;;;;4828131;29;20062;-70
2022/07/03 11:41:40;;;;;;;9.05;3.33;;;;;;;;;;4814950;29;20069;-71
2022/07/03 11:44:19;;;;;;;5.05;2.90;;;;;;;;;;4858750;29;20158;-71
2022/07/03 11:46:52;;;;;;;6.93;3.42;;;;;;;;;;4827830;29;20057;-71
2022/07/03 11:49:24;;;;;;;9.75;3.03;;;;;;;;;;4858707;29;20165;-71
2022/07/03 11:51:59;;;;;;;6.55;3.28;;;;;;;;;;4839636;29;20101;-71
2022/07/03 11:54:50;;;;;;;6.15;3.03;;;;;;;;;;4858482;29;20068;-71
2022/07/03 11:57:21;;;;;;;6.25;3.05;;;;;;;;;;4876813;29;20064;-71
2022/07/03 11:59:54;;;;;;;6.07;3.20;;;;;;;;;;4876101;29;20416;-71
2022/07/03 12:02:24;;;;;;;9.02;4.00;;;;;;;;;;4827462;29;20195;-71
2022/07/03 12:04:55;;;;;;;9.07;3.75;;;;;;;;;;4858317;29;20058;-71
2022/07/03 12:07:26;;;;;;;6.18;3.17;;;;;;;;;;4858459;29;20062;-71
2022/07/03 12:09:56;;;;;;;7.28;3.58;;;;;;;;;;4858285;29;20057;-71
2022/07/03 12:12:26;;;;;;;9.00;3.90;;;;;;;;;;4858199;29;20064;-71
2022/07/03 12:14:56;;;;;;;9.00;3.65;;;;;;;;;;4858225;29;20068;-70
2022/07/03 12:17:27;;;;;;;8.23;3.60;;;;;;;;;;4857456;29;20158;-70
2022/07/03 12:20:03;;;;;;;8.50;3.58;;;;;;;;;;4858238;29;20057;-70
2022/07/03 12:22:37;;;;;;;11.25;3.63;;;;;;;;;;4858081;29;20054;-70
2022/07/03 12:25:11;;;;;;;6.93;3.45;;;;;;;;;;4857837;29;20414;-71
2022/07/03 12:27:45;;;;;;;7.60;3.42;;;;;;;;;;4839175;29;20054;-70
2022/07/03 12:30:22;;;;;;;7.75;3.35;;;;;;;;;;4825085;29;20058;-70
2022/07/03 12:32:57;;;;;;;9.98;4.00;;;;;;;;;;4821236;29;20511;-70
2022/07/03 12:35:29;;;;;;;5.70;3.35;;;;;;;;;;4828890;29;20058;-70
2022/07/03 12:38:01;;;;;;;7.60;3.40;;;;;;;;;;4839650;29;20069;-71
2022/07/03 12:40:38;;;;;;;10.35;3.65;;;;;;;;;;4839303;29;20058;-70
2022/07/03 12:43:08;;;;;;;8.35;3.88;;;;;;;;;;4839289;29;20058;-71
2022/07/03 12:45:39;;;;;;;9.93;4.03;;;;;;;;;;4793878;29;20062;-71
2022/07/03 12:48:13;;;;;;;14.77;4.93;;;;;;;;;;4839084;29;20058;-70
2022/07/03 12:50:52;;;;;;;10.63;4.47;;;;;;;;;;4802434;29;20058;-70
2022/07/03 12:53:32;;;;;;;8.85;4.18;;;;;;;;;;4757870;29;20440;-70
2022/07/03 12:56:05;;;;;;;12.35;4.15;;;;;;;;;;4743595;29;20059;-71
2022/07/03 13:01:36;;;;;;;9.93;5.13;;;;;;;;;;4802470;29;20055;-71
2022/07/03 13:04:08;;;;;;;13.00;5.82;;;;;;;;;;4757692;29;20086;-71
2022/07/03 13:06:38;;;;;;;16.10;5.95;;;;;;;;;;4802309;29;20569;-71
2022/07/03 13:09:09;;;;;;;11.88;6.45;;;;;;;;;;4802507;29;20070;-72
2022/07/03 13:11:42;;;;;;;12.00;6.50;;;;;;;;;;4754427;29;20420;-71
2022/07/03 13:14:14;;;;;;;14.32;6.93;;;;;;;;;;4739584;30;20048;-71
2022/07/03 13:16:50;;;;;;;14.52;6.30;;;;;;;;;;4711778;30;20100;-72
2022/07/03 13:19:22;;;;;;;15.20;7.25;;;;;;;;;;4817672;29;20054;-71
2022/07/03 13:21:56;;;;;;;16.73;7.63;;;;;;;;;;4802086;29;20054;-71
2022/07/03 13:24:26;;;;;;;10.05;5.03;;;;;;;;;;4802093;29;20066;-70
2022/07/03 13:26:58;;;;;;;9.10;4.40;;;;;;;;;;4802065;29;20432;-72
2022/07/03 13:29:29;;;;;;;11.07;4.40;;;;;;;;;;4802143;29;20059;-72
2022/07/03 13:31:59;;;;;;;8.05;3.97;;;;;;;;;;4758293;29;20055;-72
2022/07/03 13:34:30;;;;;;;9.70;3.35;;;;;;;;;;4787156;29;20061;-70
2022/07/03 13:37:01;;;;;;;6.90;3.42;;;;;;;;;;4802439;29;20206;-69
2022/07/03 13:39:31;;;;;;;8.45;3.08;;;;;;;;;;4801971;29;20070;-69
2022/07/03 13:42:04;;;;;;;14.07;3.55;;;;;;;;;;4816458;29;20062;-72
2022/07/03 13:44:34;;;;;;;6.55;3.10;;;;;;;;;;4820236;29;20384;-72
2022/07/03 13:47:05;;;;;;;12.10;2.20;;;;;;;;;;4820206;29;20077;-72
2022/07/03 13:49:36;;;;;;;5.68;2.55;;;;;;;;;;4816695;29;20077;-71
2022/07/03 13:52:07;;;;;;;5.93;1.95;;;;;;;;;;4792841;29;20616;-70
2022/07/03 13:54:37;;;;;;;4.47;1.77;;;;;;;;;;4849452;29;20060;-70
2022/07/03 13:57:08;;;;;;;5.88;1.80;;;;;;;;;;4841720;29;20057;-70
2022/07/03 13:59:38;;;;;;;6.00;2.47;;;;;;;;;;4868048;29;20053;-71
2022/07/03 14:02:09;;;;;;;3.72;1.85;;;;;;;;;;4877647;29;20410;-71
2022/07/03 14:04:40;;;;;;;3.92;2.25;;;;;;;;;;4844782;29;20072;-70
2022/07/03 14:07:14;;;;;;;5.03;1.65;;;;;;;;;;4877601;29;20068;-70
2022/07/03 14:09:44;;;;;;;2.88;1.55;;;;;;;;;;4874975;29;20055;-70
2022/07/03 14:12:14;;;;;;;7.97;2.00;;;;;;;;;;4875287;29;20061;-71
2022/07/03 14:14:45;;;;;;;3.30;1.48;;;;;;;;;;4875365;29;20061;-70
2022/07/03 14:17:15;;;;;;;6.05;2.55;;;;;;;;;;4875059;29;20060;-70
2022/07/03 14:19:45;;;;;;;4.00;2.00;;;;;;;;;;4875130;29;20049;-69
2022/07/03 14:22:15;;;;;;;5.15;1.77;;;;;;;;;;4875000;29;20087;-69
2022/07/03 14:24:45;;;;;;;3.33;1.52;;;;;;;;;;4859584;29;20541;-70
2022/07/03 14:32:54;;;;;;;3.17;1.70;;;;;;;;;;4874990;29;20541;-70
2022/07/03 14:35:26;;;;;;;3.03;1.50;;;;;;;;;;4874651;29;20057;-69
2022/07/03 14:37:56;;;;;;;4.20;1.40;;;;;;;;;;4875272;29;20060;-71
2022/07/03 14:40:26;;;;;;;2.97;1.40;;;;;;;;;;4877000;29;20061;-70
2022/07/03 14:42:59;;;;;;;4.47;2.15;;;;;;;;;;4878394;29;20393;-70
2022/07/03 14:45:30;;;;;;;4.65;1.75;;;;;;;;;;4832006;29;20540;-70
2022/07/03 14:48:00;;;;;;;3.38;1.30;;;;;;;;;;4878470;29;20065;-71
2022/07/03 14:50:31;;;;;;;4.88;1.48;;;;;;;;;;4847275;29;20053;-70
2022/07/03 14:53:01;;;;;;;4.38;1.63;;;;;;;;;;4878395;29;20096;-71
2022/07/03 14:55:36;;;;;;;5.30;1.83;;;;;;;;;;4862671;29;20065;-71
2022/07/03 14:58:17;;;;;;;3.10;1.70;;;;;;;;;;4847438;29;20053;-70
2022/07/03 15:00:53;;;;;;;7.13;1.80;;;;;;;;;;4878299;29;20060;-71
2022/07/03 15:03:32;;;;;;;3.28;1.50;;;;;;;;;;4878227;29;20060;-70
2022/07/03 15:06:09;;;;;;;3.40;1.42;;;;;;;;;;4879994;29;20541;-71
2022/07/03 15:08:47;;;;;;;3.85;1.40;;;;;;;;;;4894556;29;20497;-70
2022/07/03 15:14:14;;;;;;;4.75;1.38;;;;;;;;;;4891779;29;20049;-71
2022/07/03 15:16:46;;;;;;;4.22;1.45;;;;;;;;;;4880299;29;20068;-70
2022/07/03 15:19:21;;;;;;;5.13;1.55;;;;;;;;;;4880070;29;20041;-71
2022/07/03 15:21:52;;;;;;;4.88;1.40;;;;;;;;;;4878052;29;20060;-70
2022/07/03 15:24:27;;;;;;;4.82;1.55;;;;;;;;;;4846995;29;20532;-71
2022/07/03 15:26:58;;;;;;;3.90;1.50;;;;;;;;;;4879902;29;20048;-70
2022/07/03 15:29:29;;;;;;;4.43;1.70;;;;;;;;;;4880047;29;20044;-70
2022/07/03 15:32:04;;;;;;;7.50;1.60;;;;;;;;;;4879868;29;20045;-70
2022/07/03 15:34:40;;;;;;;5.88;1.60;;;;;;;;;;4877746;29;20064;-70
2022/07/03 15:37:32;;;;;;;3.20;1.42;;;;;;;;;;4879414;29;20052;-70
2022/07/03 15:40:12;;;;;;;4.47;1.58;;;;;;;;;;4879925;29;20045;-70
2022/07/03 15:42:48;;;;;;;2.97;1.77;;;;;;;;;;4879598;29;20390;-71
2022/07/03 15:45:56;;;;;;;2.53;1.67;;;;;;;;;;4879456;29;20045;-70
2022/07/03 15:48:39;;;;;;;3.75;1.95;;;;;;;;;;4862183;29;20061;-70